Time;durP1;ratioP1;P1;durP2;ratioP2;P2;SDS_P1;SDS_P2;PMS_P1;PMS_P2;Temp;Humidity;BMP_temperature;BMP_pressure;BME280_temperature;BME280_humidity;BME280_pressure;Samples;Min_cycle;Max_cycle;Signal;HPM_P1;HPM_P2
2023/05/06 00:00:17;;;;;;;135.82;58.92;;;;;;;17.94;41.53;101528.78;5002206;28;20048;-83
2023/05/06 00:02:42;;;;;;;139.82;61.42;;;;;;;17.93;42.29;101532.34;5018241;28;20567;-83
2023/05/06 00:05:08;;;;;;;137.10;59.70;;;;;;;17.93;42.32;101526.19;5001212;28;20075;-83
2023/05/06 00:07:36;;;;;;;128.32;57.78;;;;;;;17.94;42.13;101531.41;4994704;28;20056;-86
2023/05/06 00:10:01;;;;;;;134.48;58.10;;;;;;;17.91;42.15;101518.28;5001961;28;20033;-85
2023/05/06 00:12:27;;;;;;;137.82;59.03;;;;;;;17.93;41.69;101516.50;5003312;28;20051;-84
2023/05/06 00:14:55;;;;;;;134.23;58.55;;;;;;;17.93;41.91;101510.34;4993527;28;20058;-84
2023/05/06 00:17:21;;;;;;;134.10;59.17;;;;;;;17.89;42.31;101509.56;5001723;28;20045;-84
2023/05/06 00:19:47;;;;;;;134.93;59.55;;;;;;;17.90;42.10;101506.84;5019410;28;20494;-83
2023/05/06 00:22:12;;;;;;;132.43;58.90;;;;;;;17.87;41.82;101501.69;5019973;28;20486;-83
2023/05/06 00:24:38;;;;;;;139.00;58.80;;;;;;;17.90;41.72;101505.97;4996033;28;20029;-85
2023/05/06 00:27:05;;;;;;;135.60;59.30;;;;;;;17.92;42.61;101503.34;5015052;28;20037;-88
2023/05/06 00:29:33;;;;;;;133.23;58.58;;;;;;;17.87;42.37;101495.53;5016805;28;20060;-86
2023/05/06 00:31:59;;;;;;;131.93;58.92;;;;;;;17.87;42.13;101495.53;5027543;28;20037;-84
2023/05/06 00:34:24;;;;;;;130.63;58.58;;;;;;;17.86;42.30;101499.94;5007807;28;20053;-86
2023/05/06 00:36:50;;;;;;;135.38;59.05;;;;;;;17.89;41.66;101499.84;5022499;28;20053;-85
2023/05/06 00:39:15;;;;;;;134.15;59.90;;;;;;;17.88;42.51;101505.19;5022509;28;20025;-85
2023/05/06 00:41:41;;;;;;;132.15;57.45;;;;;;;17.85;42.51;101500.00;5022513;28;20445;-84
2023/05/06 00:44:07;;;;;;;142.98;60.45;;;;;;;17.87;42.18;101491.13;5002361;28;20057;-85
2023/05/06 00:46:35;;;;;;;138.77;59.03;;;;;;;17.90;42.15;101498.03;4995391;28;21148;-84
2023/05/06 00:49:01;;;;;;;136.98;59.47;;;;;;;17.90;42.39;101498.94;4990566;28;20018;-84
2023/05/06 00:51:27;;;;;;;135.27;59.10;;;;;;;17.89;42.08;101509.56;5005044;28;20032;-84
2023/05/06 00:53:52;;;;;;;137.82;60.00;;;;;;;17.90;41.97;101504.22;5004906;28;20558;-85
2023/05/06 00:56:20;;;;;;;130.23;58.88;;;;;;;17.89;42.54;101505.13;5021227;28;20513;-84
2023/05/06 00:58:47;;;;;;;144.55;59.35;;;;;;;17.86;41.81;101504.34;5004205;28;20424;-84
2023/05/06 01:01:12;;;;;;;132.60;59.47;;;;;;;17.87;42.10;101501.69;4998707;28;20029;-84
2023/05/06 01:03:38;;;;;;;140.05;60.00;;;;;;;17.86;42.33;101501.72;5005254;28;20026;-84
2023/05/06 01:06:18;;;;;;;134.27;58.13;;;;;;;17.90;42.55;101505.97;5002420;28;20084;-84
2023/05/06 01:09:02;;;;;;;142.30;59.83;;;;;;;17.89;41.85;101502.47;5019908;28;20053;-85
2023/05/06 01:11:54;;;;;;;136.50;59.33;;;;;;;17.89;42.34;101507.78;5016273;28;20029;-84
2023/05/06 01:14:27;;;;;;;135.45;58.80;;;;;;;17.90;41.75;101512.16;5005099;28;20013;-85
2023/05/06 01:16:54;;;;;;;130.60;57.97;;;;;;;17.90;42.05;101508.63;5007654;28;20116;-83
2023/05/06 01:19:47;;;;;;;134.52;59.47;;;;;;;17.92;42.16;101514.75;5005473;28;20029;-84
2023/05/06 01:22:14;;;;;;;135.10;59.75;;;;;;;17.91;41.82;101510.34;4980792;28;20057;-85
2023/05/06 01:24:41;;;;;;;140.10;60.25;;;;;;;17.92;42.38;101509.47;5015317;28;20107;-86
2023/05/06 01:27:08;;;;;;;133.30;59.35;;;;;;;17.92;41.95;101514.75;5008905;28;20025;-83
2023/05/06 01:29:35;;;;;;;136.80;60.58;;;;;;;17.94;42.25;101512.91;5007602;28;20064;-84
2023/05/06 01:32:40;;;;;;;133.68;59.65;;;;;;;17.94;42.38;101514.72;5009603;28;20021;-83
2023/05/06 01:35:31;;;;;;;137.47;59.07;;;;;;;17.95;42.10;101517.28;4973929;28;20033;-85
2023/05/06 01:38:08;;;;;;;138.32;59.13;;;;;;;17.94;42.37;101512.91;5052939;22;20095;-71
2023/05/06 01:40:34;;;;;;;141.18;60.55;;;;;;;17.95;42.24;101511.16;5016749;28;20034;-73
2023/05/06 01:43:01;;;;;;;140.68;61.28;;;;;;;17.95;42.09;101508.50;5017663;28;20037;-73
2023/05/06 01:45:27;;;;;;;138.77;60.33;;;;;;;17.95;42.17;101514.66;5014401;28;20112;-71
2023/05/06 01:47:53;;;;;;;144.73;61.75;;;;;;;17.95;42.28;101519.94;5013902;28;20037;-71
2023/05/06 01:50:18;;;;;;;138.15;60.22;;;;;;;17.96;42.49;101519.03;5006783;28;20467;-72
2023/05/06 01:52:44;;;;;;;138.52;59.83;;;;;;;17.96;42.19;101516.38;5020538;28;20060;-72
2023/05/06 01:55:09;;;;;;;141.15;59.80;;;;;;;17.98;42.10;101519.81;4998392;28;20420;-72
2023/05/06 01:57:35;;;;;;;141.65;61.22;;;;;;;17.98;42.12;101522.47;5014574;28;20029;-72
2023/05/06 02:00:00;;;;;;;141.85;61.63;;;;;;;17.96;42.08;101515.53;5013644;28;20065;-73
2023/05/06 02:02:26;;;;;;;138.93;60.25;;;;;;;17.95;42.50;101519.94;5006162;28;20030;-72
2023/05/06 02:04:51;;;;;;;136.55;59.67;;;;;;;17.97;42.09;101527.81;5014344;28;20025;-72
2023/05/06 02:07:17;;;;;;;139.48;60.42;;;;;;;17.97;42.72;101523.41;4997669;28;20040;-72
2023/05/06 02:09:42;;;;;;;141.80;61.55;;;;;;;17.97;42.39;101522.53;4997550;28;20028;-72
2023/05/06 02:12:07;;;;;;;139.38;60.35;;;;;;;17.97;41.98;101525.16;5013982;28;20045;-72
2023/05/06 02:14:33;;;;;;;139.93;60.90;;;;;;;17.97;42.24;101520.75;4978519;28;20026;-72
2023/05/06 02:17:05;;;;;;;141.60;61.88;;;;;;;17.98;42.50;101516.34;5007602;28;20033;-72
2023/05/06 02:19:30;;;;;;;138.18;60.05;;;;;;;17.96;42.29;101521.69;5014502;28;20084;-72
2023/05/06 02:21:56;;;;;;;144.57;60.20;;;;;;;17.96;42.39;101521.69;4997096;28;20428;-72
2023/05/06 02:24:22;;;;;;;147.98;62.20;;;;;;;17.97;42.13;101515.47;5014275;28;20670;-72
2023/05/06 02:26:47;;;;;;;138.35;60.78;;;;;;;17.95;42.31;101514.66;4998441;28;20463;-73
2023/05/06 02:29:12;;;;;;;139.38;60.47;;;;;;;17.96;42.28;101510.25;5014036;28;20041;-72
2023/05/06 02:31:38;;;;;;;137.90;59.28;;;;;;;17.95;42.24;101509.38;5014700;28;20026;-72
2023/05/06 02:34:03;;;;;;;144.65;61.65;;;;;;;17.97;42.04;101507.56;4978941;28;20407;-72
2023/05/06 02:36:29;;;;;;;139.07;59.60;;;;;;;17.96;42.17;101505.81;5000783;28;20030;-73
2023/05/06 02:38:54;;;;;;;151.23;61.75;;;;;;;17.94;42.25;101507.63;4997240;28;20029;-73
2023/05/06 02:41:20;;;;;;;133.15;60.15;;;;;;;17.95;42.30;101509.38;4997204;28;20445;-73
2023/05/06 02:43:45;;;;;;;137.95;60.63;;;;;;;17.96;42.24;101511.09;4982048;28;20480;-73
2023/05/06 02:46:11;;;;;;;133.68;60.28;;;;;;;17.95;42.04;101512.00;4997728;28;20022;-73
2023/05/06 02:48:36;;;;;;;144.30;60.63;;;;;;;17.96;42.43;101516.38;4997804;28;20498;-73
2023/05/06 02:51:01;;;;;;;149.88;62.70;;;;;;;17.96;41.92;101508.47;5012131;28;20034;-73
2023/05/06 02:53:27;;;;;;;131.48;59.42;;;;;;;17.97;42.68;101518.13;5014956;28;20318;-73
2023/05/06 02:55:52;;;;;;;137.35;63.10;;;;;;;17.97;42.31;101517.25;5015382;28;20080;-73
2023/05/06 02:58:18;;;;;;;139.18;61.80;;;;;;;17.97;42.08;101518.13;4997584;28;20057;-73
2023/05/06 03:00:43;;;;;;;139.52;60.97;;;;;;;17.96;42.74;101515.53;4995828;28;20026;-73
2023/05/06 03:03:08;;;;;;;140.65;61.38;;;;;;;17.97;42.27;101522.53;5005133;28;20108;-73
2023/05/06 03:05:34;;;;;;;140.32;60.85;;;;;;;17.95;42.74;101516.44;4997249;28;20036;-73
2023/05/06 03:07:59;;;;;;;141.13;61.28;;;;;;;17.95;42.36;101509.38;5013321;28;20491;-73
2023/05/06 03:10:25;;;;;;;140.77;61.35;;;;;;;17.95;42.60;101516.44;4996788;28;20120;-73
2023/05/06 03:12:50;;;;;;;141.18;61.92;;;;;;;17.94;42.55;101512.91;4991577;28;20402;-73
2023/05/06 03:15:15;;;;;;;144.73;62.42;;;;;;;17.93;42.54;101505.03;4996954;28;20026;-72
2023/05/06 03:17:41;;;;;;;141.35;61.33;;;;;;;17.94;42.58;101502.34;4997531;28;20021;-72
2023/05/06 03:20:07;;;;;;;132.45;59.47;;;;;;;17.94;42.46;101506.78;5012294;28;20088;-72
2023/05/06 03:22:32;;;;;;;144.52;62.97;;;;;;;17.96;42.60;101508.47;5015183;28;20105;-72
2023/05/06 03:24:58;;;;;;;141.43;60.60;;;;;;;17.96;42.47;101500.53;5004131;28;20065;-72
2023/05/06 03:27:23;;;;;;;137.95;61.65;;;;;;;17.94;42.12;101491.78;4979739;28;20125;-72
2023/05/06 03:29:48;;;;;;;142.63;62.42;;;;;;;17.96;42.33;101489.09;4992827;28;20025;-73
2023/05/06 03:32:14;;;;;;;142.90;65.07;;;;;;;17.95;42.74;101498.78;5015087;28;20034;-72
2023/05/06 03:34:39;;;;;;;139.73;60.85;;;;;;;17.95;42.08;101488.22;5014045;28;20025;-72
2023/05/06 03:37:04;;;;;;;139.73;61.40;;;;;;;17.94;42.13;101480.34;5014737;28;20022;-72
2023/05/06 03:39:30;;;;;;;132.55;60.38;;;;;;;17.93;42.57;101484.78;5013598;28;20322;-72
2023/05/06 03:41:55;;;;;;;140.68;60.78;;;;;;;17.94;42.39;101483.84;5003161;28;20051;-73
2023/05/06 03:44:20;;;;;;;151.43;62.25;;;;;;;17.94;42.70;101486.50;5008593;28;20057;-72
2023/05/06 03:46:46;;;;;;;135.77;60.00;;;;;;;17.93;42.71;101492.72;4993851;28;20428;-72
2023/05/06 03:49:11;;;;;;;133.10;59.72;;;;;;;17.94;42.48;101486.50;5001743;28;20038;-72
2023/05/06 03:51:36;;;;;;;141.60;60.83;;;;;;;17.93;42.65;101491.84;5012616;28;20025;-72
2023/05/06 03:54:02;;;;;;;140.80;61.90;;;;;;;17.95;42.64;101487.38;5014787;28;20040;-71
2023/05/06 03:56:27;;;;;;;163.48;63.60;;;;;;;17.94;42.82;101485.63;4991413;28;20057;-72
2023/05/06 03:58:53;;;;;;;155.68;62.72;;;;;;;17.92;42.17;101483.06;5013311;28;20026;-72
2023/05/06 04:01:19;;;;;;;138.80;60.97;;;;;;;17.93;42.46;101483.91;5013761;28;20452;-72
2023/05/06 04:03:44;;;;;;;139.07;61.30;;;;;;;17.92;42.73;101483.06;4996560;28;20057;-72
2023/05/06 04:06:10;;;;;;;139.40;59.50;;;;;;;17.90;42.45;101480.44;5005335;28;20030;-71
2023/05/06 04:08:35;;;;;;;145.15;61.72;;;;;;;17.92;42.77;101485.69;5013793;28;20038;-72
2023/05/06 04:11:07;;;;;;;139.60;60.97;;;;;;;17.94;42.17;101490.91;5012009;28;20036;-71
2023/05/06 04:13:33;;;;;;;140.88;61.50;;;;;;;17.94;42.17;101490.91;4996687;28;20080;-72
2023/05/06 04:15:59;;;;;;;133.63;61.25;;;;;;;17.91;42.45;101491.84;4995459;28;20025;-72
2023/05/06 04:18:24;;;;;;;148.52;62.90;;;;;;;17.92;42.44;101493.63;4998536;28;20368;-72
2023/05/06 04:20:50;;;;;;;133.60;59.63;;;;;;;17.93;42.30;101505.03;5015300;28;20113;-72
2023/05/06 04:23:15;;;;;;;144.73;62.08;;;;;;;17.92;42.19;101504.19;5005750;28;20033;-72
2023/05/06 04:25:41;;;;;;;139.85;61.38;;;;;;;17.93;42.46;101505.94;5012244;28;20053;-71
2023/05/06 04:28:10;;;;;;;134.82;60.20;;;;;;;17.94;42.30;101509.44;4995893;28;20085;-72
2023/05/06 04:30:36;;;;;;;140.82;61.85;;;;;;;17.94;42.22;101502.34;4988822;28;20042;-72
2023/05/06 04:33:02;;;;;;;136.65;61.40;;;;;;;17.93;42.26;101500.66;5014832;28;20087;-72
2023/05/06 04:35:28;;;;;;;136.95;61.75;;;;;;;17.95;42.60;101503.22;5015777;28;20022;-72
2023/05/06 04:37:55;;;;;;;140.50;60.58;;;;;;;17.94;42.46;101502.34;5013918;28;20076;-71
2023/05/06 04:40:21;;;;;;;142.80;61.72;;;;;;;17.95;42.58;101504.09;5016393;28;20495;-72
2023/05/06 04:42:46;;;;;;;143.57;60.83;;;;;;;17.96;42.82;101505.81;5014353;28;20152;-72
2023/05/06 04:45:11;;;;;;;141.00;60.65;;;;;;;17.97;42.03;101511.94;4998717;28;20022;-71
2023/05/06 04:47:37;;;;;;;141.25;61.40;;;;;;;17.96;42.07;101521.69;5014615;28;20061;-72
2023/05/06 04:50:03;;;;;;;136.70;59.25;;;;;;;17.97;41.77;101523.41;5012371;28;20026;-73
2023/05/06 04:52:28;;;;;;;133.57;60.58;;;;;;;17.98;42.22;101530.41;4997995;28;20036;-72
2023/05/06 04:54:54;;;;;;;141.45;61.55;;;;;;;17.99;42.17;101532.13;4996344;28;20029;-72
2023/05/06 04:57:19;;;;;;;140.35;60.65;;;;;;;18.00;41.94;101539.16;4996487;28;20056;-72
2023/05/06 04:59:45;;;;;;;143.85;61.72;;;;;;;18.00;42.64;101539.16;5012319;28;20125;-72
2023/05/06 05:02:10;;;;;;;143.68;62.58;;;;;;;18.00;42.62;101539.16;5016764;28;20034;-72
2023/05/06 05:04:35;;;;;;;143.45;61.00;;;;;;;18.01;41.90;101546.19;5016897;28;20026;-72
2023/05/06 05:07:01;;;;;;;141.85;61.47;;;;;;;18.00;42.50;101536.50;5017854;28;20750;-73
2023/05/06 05:09:26;;;;;;;139.65;61.47;;;;;;;18.00;42.24;101543.59;5015776;28;20522;-72
2023/05/06 05:11:51;;;;;;;143.05;62.75;;;;;;;17.99;42.40;101534.78;5000994;28;20065;-72
2023/05/06 05:14:17;;;;;;;152.13;61.47;;;;;;;18.01;42.42;101537.38;5015351;28;20175;-72
2023/05/06 05:16:42;;;;;;;138.77;62.20;;;;;;;18.01;42.38;101540.88;5015329;28;20438;-72
2023/05/06 05:19:07;;;;;;;146.80;63.20;;;;;;;18.02;42.53;101547.88;5016273;28;20540;-72
2023/05/06 05:21:33;;;;;;;145.82;63.55;;;;;;;18.03;41.93;101546.97;5018514;28;20376;-72
2023/05/06 05:23:58;;;;;;;141.43;61.90;;;;;;;18.04;42.39;101550.50;5019514;28;20533;-72
2023/05/06 05:26:23;;;;;;;138.23;60.47;;;;;;;18.03;42.42;101556.69;5018568;28;20026;-72
2023/05/06 05:28:49;;;;;;;138.68;62.35;;;;;;;18.04;41.74;101555.78;4994480;28;20480;-72
2023/05/06 05:31:14;;;;;;;135.90;61.08;;;;;;;18.03;42.35;101551.41;5015173;28;20022;-72
2023/05/06 05:33:43;;;;;;;138.52;62.05;;;;;;;18.03;42.21;101554.91;4997174;28;20022;-72
2023/05/06 05:36:11;;;;;;;141.95;61.95;;;;;;;18.03;42.12;101560.19;4996945;28;20029;-72
2023/05/06 05:38:36;;;;;;;140.90;61.53;;;;;;;18.03;42.30;101554.91;5001358;28;20506;-73
2023/05/06 05:41:02;;;;;;;141.15;60.90;;;;;;;18.04;41.87;101556.63;5016203;28;20037;-73
2023/05/06 05:43:27;;;;;;;134.13;60.67;;;;;;;18.03;42.00;101560.19;5015965;28;20033;-72
2023/05/06 05:45:52;;;;;;;143.20;61.50;;;;;;;18.06;41.92;101568.03;4998521;28;20037;-72
2023/05/06 05:48:18;;;;;;;142.63;61.60;;;;;;;18.06;42.28;101565.41;5015948;28;20026;-72
2023/05/06 05:50:43;;;;;;;142.35;62.55;;;;;;;18.06;41.75;101570.69;5013337;28;20107;-72
2023/05/06 05:53:08;;;;;;;144.50;62.13;;;;;;;18.07;42.21;101566.25;5016421;28;20022;-72
2023/05/06 05:55:34;;;;;;;147.25;61.63;;;;;;;18.08;42.19;101566.19;5004269;28;21212;-72
2023/05/06 05:57:59;;;;;;;137.95;62.05;;;;;;;18.09;42.14;101577.63;5001117;28;20014;-72
2023/05/06 06:00:24;;;;;;;148.68;69.05;;;;;;;18.12;42.11;101576.66;4996667;28;20131;-72
2023/05/06 06:02:50;;;;;;;141.02;61.63;;;;;;;18.13;42.10;101579.25;5013836;28;20407;-72
2023/05/06 06:05:15;;;;;;;144.57;62.22;;;;;;;18.13;42.34;101570.47;5000035;28;20420;-72
2023/05/06 06:07:40;;;;;;;146.25;64.20;;;;;;;18.15;42.12;101576.56;4994463;28;20025;-72
2023/05/06 06:10:06;;;;;;;143.07;61.58;;;;;;;18.15;42.27;101576.56;5012386;28;20029;-72
2023/05/06 06:12:32;;;;;;;142.77;64.05;;;;;;;18.16;42.29;101579.16;5016780;28;20104;-72
2023/05/06 06:14:57;;;;;;;148.57;61.97;;;;;;;18.15;41.97;101574.78;5014681;28;20061;-72
2023/05/06 06:17:23;;;;;;;138.93;61.75;;;;;;;18.15;41.97;101580.06;5016449;28;20328;-74
2023/05/06 06:19:50;;;;;;;137.60;61.33;;;;;;;18.15;42.13;101584.50;4998749;28;20546;-72
2023/05/06 06:22:15;;;;;;;140.55;62.53;;;;;;;18.17;41.78;101583.50;5015423;28;20159;-72
2023/05/06 06:24:40;;;;;;;141.63;62.15;;;;;;;18.18;41.70;101585.25;5015028;28;20506;-71
2023/05/06 06:27:06;;;;;;;153.55;64.82;;;;;;;18.20;41.76;101585.19;5013296;28;20025;-72
2023/05/06 06:29:31;;;;;;;154.75;62.50;;;;;;;18.21;41.70;101586.94;5013270;28;20030;-72
2023/05/06 06:31:57;;;;;;;137.82;61.03;;;;;;;18.22;41.72;101588.66;5012592;28;20042;-73
2023/05/06 06:34:23;;;;;;;145.90;61.83;;;;;;;18.25;41.58;101596.47;4993298;28;20057;-72
2023/05/06 06:36:48;;;;;;;140.45;62.20;;;;;;;18.25;42.05;101596.47;5014257;28;20040;-72
2023/05/06 06:39:13;;;;;;;145.20;62.28;;;;;;;18.23;41.95;101598.34;5015760;28;20442;-72
2023/05/06 06:41:39;;;;;;;139.38;63.28;;;;;;;18.23;41.67;101593.03;4994512;28;20026;-72
2023/05/06 06:44:04;;;;;;;156.07;63.92;;;;;;;18.24;41.25;101600.03;5011611;28;20025;-72
2023/05/06 06:46:30;;;;;;;137.70;63.17;;;;;;;18.24;41.41;101610.59;5014512;28;20116;-73
2023/05/06 06:48:55;;;;;;;154.43;62.75;;;;;;;18.24;41.67;101606.19;5014471;28;20062;-73
2023/05/06 06:51:20;;;;;;;143.93;62.00;;;;;;;18.26;41.34;101608.78;4998561;28;20475;-73
2023/05/06 06:53:47;;;;;;;137.27;60.47;;;;;;;18.27;41.77;101618.47;4998871;28;20025;-72
2023/05/06 06:56:13;;;;;;;143.13;63.03;;;;;;;18.27;41.32;101621.09;4995305;28;20391;-73
2023/05/06 06:58:38;;;;;;;137.07;60.67;;;;;;;18.26;41.97;101622.00;5013494;28;20028;-73
2023/05/06 07:01:04;;;;;;;140.63;62.60;;;;;;;18.27;41.97;101628.16;4998550;28;20033;-73
2023/05/06 07:03:29;;;;;;;137.07;61.97;;;;;;;18.27;41.72;101623.75;5008110;28;20082;-73
2023/05/06 07:05:55;;;;;;;138.38;61.03;;;;;;;18.23;41.35;101620.34;4997137;28;20033;-73
2023/05/06 07:08:21;;;;;;;141.05;63.42;;;;;;;18.25;41.74;101628.22;4997635;28;20036;-73
2023/05/06 07:10:47;;;;;;;146.85;64.53;;;;;;;18.26;41.33;101627.31;5015525;28;20045;-72
2023/05/06 07:13:12;;;;;;;137.57;63.55;;;;;;;18.26;41.75;101624.66;5015008;28;20025;-73
2023/05/06 07:15:38;;;;;;;154.18;66.35;;;;;;;18.27;41.62;101626.41;5016533;28;20487;-73
2023/05/06 07:18:03;;;;;;;139.98;62.28;;;;;;;18.28;41.39;101627.25;5019399;28;20098;-72
2023/05/06 07:20:28;;;;;;;132.82;61.38;;;;;;;18.28;41.69;101628.09;5002750;28;20060;-73
2023/05/06 07:22:54;;;;;;;136.27;59.55;;;;;;;18.31;41.58;101635.06;5018521;28;20078;-71
2023/05/06 07:25:20;;;;;;;141.43;61.80;;;;;;;18.31;41.79;101635.94;4999713;28;20089;-71
2023/05/06 07:27:45;;;;;;;141.32;62.33;;;;;;;18.32;41.81;101632.38;5016419;28;20042;-73
2023/05/06 07:30:11;;;;;;;138.48;64.50;;;;;;;18.34;41.89;101633.19;5000527;28;20030;-73
2023/05/06 07:32:36;;;;;;;154.38;66.15;;;;;;;18.33;41.54;101636.75;5014460;28;20064;-72
2023/05/06 07:35:04;;;;;;;148.90;62.70;;;;;;;18.35;41.68;101640.22;5000028;28;20060;-72
2023/05/06 07:37:29;;;;;;;160.98;63.92;;;;;;;18.37;41.43;101643.66;5032740;23;20037;-81
2023/05/06 07:39:56;;;;;;;152.90;63.80;;;;;;;18.39;41.54;101639.19;5090732;28;20028;-81
2023/05/06 07:42:21;;;;;;;148.48;62.35;;;;;;;18.39;41.26;101641.84;5076480;28;20013;-80
2023/05/06 07:44:46;;;;;;;152.00;63.25;;;;;;;18.40;41.39;101642.69;5093846;28;20024;-81
2023/05/06 07:47:16;;;;;;;140.00;60.72;;;;;;;18.41;41.65;101652.38;5071614;28;20024;-81
2023/05/06 07:49:42;;;;;;;141.55;61.53;;;;;;;18.41;41.57;101655.88;5055828;28;20033;-81
2023/05/06 07:52:07;;;;;;;139.32;61.10;;;;;;;18.42;41.09;101652.31;5063637;28;20021;-81
2023/05/06 07:54:33;;;;;;;139.77;62.13;;;;;;;18.44;41.60;101659.34;5050744;28;20033;-81
2023/05/06 07:56:58;;;;;;;141.50;63.58;;;;;;;18.42;41.67;101657.59;5064636;28;20103;-83
2023/05/06 07:59:23;;;;;;;139.68;61.97;;;;;;;18.44;41.29;101659.34;5053175;28;20020;-83
2023/05/06 08:01:49;;;;;;;148.10;62.65;;;;;;;18.48;41.65;101660.97;5066004;28;20021;-81
2023/05/06 08:04:14;;;;;;;154.43;63.97;;;;;;;18.51;40.82;101666.13;5057998;28;20028;-81
2023/05/06 08:06:40;;;;;;;144.05;62.78;;;;;;;18.54;41.09;101668.69;5064397;28;20029;-80
2023/05/06 08:09:05;;;;;;;136.10;60.80;;;;;;;18.56;41.33;101672.16;5067817;28;20017;-82
2023/05/06 08:11:30;;;;;;;141.52;61.58;;;;;;;18.58;40.86;101672.94;5066856;28;20055;-82
2023/05/06 08:13:56;;;;;;;139.75;62.17;;;;;;;18.57;40.76;101671.25;5059353;28;20029;-83
2023/05/06 08:16:21;;;;;;;140.57;62.08;;;;;;;18.61;41.33;101672.84;5049300;28;20021;-81
2023/05/06 08:18:46;;;;;;;140.43;61.85;;;;;;;18.64;41.01;101675.41;5060481;28;20033;-82
2023/05/06 08:21:12;;;;;;;141.98;63.42;;;;;;;18.64;41.43;101672.75;5055387;28;20574;-81
2023/05/06 08:23:37;;;;;;;138.07;61.63;;;;;;;18.61;40.84;101675.50;5055066;28;20029;-82
2023/05/06 08:26:02;;;;;;;136.80;60.15;;;;;;;18.64;41.54;101680.69;5042223;28;20035;-83
2023/05/06 08:28:28;;;;;;;139.50;60.97;;;;;;;18.62;40.59;101685.16;5053811;28;20406;-83
2023/05/06 08:30:53;;;;;;;141.77;60.85;;;;;;;18.57;40.98;101672.09;5061633;28;20476;-84
2023/05/06 08:33:19;;;;;;;137.60;61.15;;;;;;;18.59;41.15;101679.97;5073368;28;20020;-84
2023/05/06 08:35:45;;;;;;;139.40;64.03;;;;;;;18.60;41.08;101692.28;5066113;28;20042;-83
2023/05/06 08:38:11;;;;;;;137.80;61.67;;;;;;;18.61;41.28;101688.75;5063702;28;20049;-83
2023/05/06 08:40:42;;;;;;;147.68;62.95;;;;;;;18.59;41.31;101691.41;5052294;28;20021;-82
2023/05/06 08:43:11;;;;;;;133.13;60.65;;;;;;;18.63;40.92;101696.63;5048490;28;20035;-81
2023/05/06 08:45:37;;;;;;;148.90;63.53;;;;;;;18.61;41.27;101690.50;5066578;28;20020;-81
2023/05/06 08:48:02;;;;;;;136.70;61.47;;;;;;;18.66;41.24;101699.16;5072546;28;20425;-81
2023/05/06 08:50:28;;;;;;;137.70;60.78;;;;;;;18.66;41.13;101691.22;5057831;28;20552;-81
2023/05/06 08:52:53;;;;;;;138.13;65.20;;;;;;;18.67;40.70;101691.16;5051900;28;20054;-81
2023/05/06 08:55:20;;;;;;;150.23;64.70;;;;;;;18.69;40.72;101702.56;5061814;28;20111;-82
2023/05/06 08:57:47;;;;;;;141.77;61.35;;;;;;;18.72;41.00;101706.91;5068660;28;20009;-83
2023/05/06 09:00:13;;;;;;;137.38;62.25;;;;;;;18.73;41.05;101698.00;5073404;28;20092;-82
2023/05/06 09:02:39;;;;;;;142.32;65.85;;;;;;;18.77;40.50;101709.38;5039896;28;20044;-83
2023/05/06 09:05:05;;;;;;;139.95;62.85;;;;;;;18.78;40.68;101708.47;5071238;28;20020;-83
2023/05/06 09:07:30;;;;;;;133.57;62.28;;;;;;;18.81;41.09;101711.00;5080964;28;20332;-83
2023/05/06 09:09:56;;;;;;;141.27;62.63;;;;;;;18.83;40.61;101714.44;5070172;28;20437;-82
2023/05/06 09:12:23;;;;;;;138.73;62.45;;;;;;;18.83;41.12;101714.44;5063835;28;20025;-82
2023/05/06 09:14:50;;;;;;;137.85;63.72;;;;;;;18.86;40.10;101711.69;5065671;28;20029;-82
2023/05/06 09:17:22;;;;;;;139.82;63.60;;;;;;;18.90;40.76;101710.72;5065249;28;20082;-82
2023/05/06 09:19:52;;;;;;;137.20;62.80;;;;;;;18.89;40.38;101706.31;5047502;28;20029;-83
2023/05/06 09:22:20;;;;;;;138.35;62.65;;;;;;;18.96;39.92;101715.78;5058107;28;20024;-82
2023/05/06 09:24:45;;;;;;;138.75;64.68;;;;;;;18.98;40.34;101718.34;5051888;28;20020;-82
2023/05/06 09:27:11;;;;;;;137.80;61.05;;;;;;;18.97;40.21;101714.84;5036813;28;20033;-83
2023/05/06 09:29:37;;;;;;;137.20;60.65;;;;;;;19.02;40.08;101712.91;5024145;28;20064;-83
2023/05/06 09:32:04;;;;;;;140.88;63.92;;;;;;;19.04;40.21;101711.06;5052760;28;20063;-82
2023/05/06 09:34:30;;;;;;;139.38;61.10;;;;;;;19.03;40.12;101712.00;5060719;28;20090;-82
2023/05/06 09:36:57;;;;;;;142.35;61.25;;;;;;;19.09;40.37;101711.78;5063303;28;20067;-83
2023/05/06 09:39:26;;;;;;;137.63;62.03;;;;;;;19.16;39.57;101712.41;5040539;28;20037;-83
2023/05/06 09:41:52;;;;;;;139.15;63.15;;;;;;;19.15;39.74;101715.13;5049697;28;20032;-82
2023/05/06 09:44:18;;;;;;;150.85;62.17;;;;;;;19.15;40.30;101715.97;5078194;28;20033;-83
2023/05/06 09:46:43;;;;;;;137.32;60.75;;;;;;;19.15;39.84;101718.63;5075284;28;20093;-83
2023/05/06 09:49:09;;;;;;;141.80;61.33;;;;;;;19.15;40.07;101721.28;5098147;28;20437;-83
2023/05/06 09:51:35;;;;;;;143.50;62.53;;;;;;;19.12;40.28;101721.41;5070369;28;20096;-83
2023/05/06 09:54:01;;;;;;;140.60;62.22;;;;;;;19.09;40.08;101722.38;5052430;28;20116;-83
2023/05/06 09:56:27;;;;;;;145.98;62.03;;;;;;;19.10;40.02;101723.22;5027357;28;20039;-83
2023/05/06 09:58:53;;;;;;;138.05;61.63;;;;;;;19.12;39.63;101720.53;5069668;28;20389;-83
2023/05/06 10:01:19;;;;;;;147.38;64.13;;;;;;;19.14;39.64;101734.56;5073530;28;20029;-83
2023/05/06 10:03:45;;;;;;;138.80;60.53;;;;;;;19.12;40.23;101732.00;5055984;28;20410;-82
2023/05/06 10:06:11;;;;;;;133.68;61.13;;;;;;;19.11;40.17;101732.91;5058544;28;20028;-85
2023/05/06 10:08:36;;;;;;;135.07;61.65;;;;;;;19.11;39.96;101738.19;5062843;28;20013;-84
2023/05/06 10:11:04;;;;;;;134.02;59.88;;;;;;;19.12;39.85;101736.44;5061984;28;20052;-85
2023/05/06 10:13:29;;;;;;;142.02;61.75;;;;;;;19.09;39.84;101727.66;5057421;28;20104;-86
2023/05/06 10:15:55;;;;;;;141.43;61.25;;;;;;;19.06;40.23;101727.78;5055934;28;20029;-84
2023/05/06 10:18:21;;;;;;;138.63;61.75;;;;;;;19.12;39.87;101728.50;5072404;28;20018;-84
2023/05/06 10:20:47;;;;;;;143.15;62.45;;;;;;;19.14;40.48;101734.56;5046125;28;20030;-84
2023/05/06 10:23:26;;;;;;;140.00;61.22;;;;;;;19.14;40.00;101729.28;5045720;28;20063;-85
2023/05/06 10:25:56;;;;;;;134.48;61.95;;;;;;;19.12;39.74;101728.50;5082976;28;20063;-85
2023/05/06 10:28:22;;;;;;;140.75;62.30;;;;;;;19.15;40.42;101731.00;5071727;28;20017;-85
2023/05/06 10:30:50;;;;;;;143.35;61.83;;;;;;;19.16;40.41;101735.41;5047579;28;20023;-84
2023/05/06 10:33:16;;;;;;;145.88;62.00;;;;;;;19.13;40.15;101727.53;5049792;28;20200;-85
2023/05/06 10:36:09;;;;;;;137.48;62.53;;;;;;;19.15;40.44;101729.22;5041236;28;20123;-84
2023/05/06 10:38:48;;;;;;;152.57;63.88;;;;;;;19.11;40.02;101724.09;5063593;28;20036;-84
2023/05/06 10:41:14;;;;;;;137.95;60.90;;;;;;;19.16;39.98;101732.75;5042411;28;20040;-84
2023/05/06 10:43:44;;;;;;;138.38;60.97;;;;;;;19.15;40.56;101731.88;5047274;28;20080;-84
2023/05/06 10:46:12;;;;;;;143.43;63.05;;;;;;;19.16;40.41;101730.09;5057194;28;20008;-86
2023/05/06 10:48:39;;;;;;;136.73;60.40;;;;;;;19.16;39.84;101727.47;5079390;28;20052;-88
2023/05/06 10:51:24;;;;;;;137.80;61.55;;;;;;;19.25;39.77;101743.88;5056997;28;20028;-86
2023/05/06 10:54:03;;;;;;;146.13;63.53;;;;;;;19.30;40.28;101741.03;5069863;28;20025;-85
2023/05/06 10:56:33;;;;;;;145.30;62.55;;;;;;;19.28;39.68;101732.31;5047311;28;20026;-86
2023/05/06 10:59:09;;;;;;;145.88;62.92;;;;;;;19.25;39.80;101737.69;5057552;28;20013;-88